Time;durP1;ratioP1;P1;durP2;ratioP2;P2;SDS_P1;SDS_P2;PMS_P1;PMS_P2;Temp;Humidity;BMP_temperature;BMP_pressure;BME280_temperature;BME280_humidity;BME280_pressure;Samples;Min_cycle;Max_cycle;Signal;HPM_P1;HPM_P2
2023/07/23 00:00:12;;;;;;;8.03;5.93;;;;;;;14.43;100.00;101040.25;5030088;28;20195;-72
2023/07/23 00:02:38;;;;;;;8.23;5.17;;;;;;;14.42;100.00;101030.53;5031641;28;20197;-71
2023/07/23 00:05:04;;;;;;;8.17;5.50;;;;;;;14.63;100.00;101037.44;5026663;28;20556;-72
2023/07/23 00:07:30;;;;;;;9.70;6.23;;;;;;;14.32;100.00;101020.22;5026090;28;20204;-72
2023/07/23 00:09:55;;;;;;;7.40;6.60;;;;;;;14.23;100.00;101010.72;5026859;28;20195;-71
2023/07/23 00:12:21;;;;;;;9.03;5.77;;;;;;;13.54;100.00;100877.66;5028368;28;20446;-71
2023/07/23 00:14:46;;;;;;;7.67;5.67;;;;;;;14.25;100.00;100992.44;5033346;28;20191;-71
2023/07/23 00:17:11;;;;;;;7.43;5.90;;;;;;;13.89;100.00;100940.03;5033261;28;20215;-71
2023/07/23 00:19:37;;;;;;;9.43;5.43;;;;;;;14.21;100.00;101019.06;5032120;28;20183;-71
2023/07/23 00:22:02;;;;;;;7.60;5.73;;;;;;;14.38;100.00;101019.34;5029616;28;20207;-71
2023/07/23 00:24:28;;;;;;;11.37;5.47;;;;;;;13.70;100.00;100928.31;5031568;28;20207;-72
2023/07/23 00:26:53;;;;;;;10.37;5.17;;;;;;;14.38;100.00;101048.22;5031101;28;20216;-72
2023/07/23 00:29:19;;;;;;;8.00;5.97;;;;;;;14.14;100.00;101031.75;5031171;28;20270;-71
2023/07/23 00:31:44;;;;;;;10.83;5.53;;;;;;;14.14;100.00;101022.81;5035673;28;20315;-71
2023/07/23 00:34:09;;;;;;;12.63;5.23;;;;;;;14.16;100.00;101034.22;5035890;28;20196;-71
2023/07/23 00:36:35;;;;;;;10.63;5.63;;;;;;;14.22;100.00;101025.28;5028625;28;20234;-71
2023/07/23 00:39:02;;;;;;;7.57;4.33;;;;;;;14.04;100.00;100999.03;5031904;28;20735;-71
2023/07/23 00:41:28;;;;;;;8.07;4.73;;;;;;;13.99;100.00;101023.13;5043981;28;20190;-71
2023/07/23 00:43:53;;;;;;;6.77;4.30;;;;;;;13.76;100.00;100985.94;5029490;28;20466;-71
2023/07/23 00:46:19;;;;;;;5.70;4.73;;;;;;;14.00;100.00;101014.84;5029008;28;20286;-71
2023/07/23 00:48:44;;;;;;;7.40;3.90;;;;;;;13.69;100.00;100983.28;5031618;28;20665;-71
2023/07/23 00:51:10;;;;;;;8.97;4.63;;;;;;;13.99;100.00;101039.31;5031299;28;20214;-71
2023/07/23 00:53:35;;;;;;;7.17;4.63;;;;;;;13.86;100.00;101023.22;5034547;28;20194;-71
2023/07/23 00:56:02;;;;;;;8.57;4.53;;;;;;;13.95;100.00;101020.06;5029924;28;20219;-71
2023/07/23 00:58:27;;;;;;;7.47;4.67;;;;;;;13.96;100.00;101037.06;5029756;28;20955;-71
2023/07/23 01:00:53;;;;;;;7.50;4.80;;;;;;;13.82;100.00;101020.13;5028899;28;20448;-71
2023/07/23 01:03:18;;;;;;;7.23;4.87;;;;;;;13.82;100.00;101017.41;5027344;28;20664;-71
2023/07/23 01:05:45;;;;;;;9.27;5.93;;;;;;;13.43;100.00;100988.81;5025886;28;20231;-71
2023/07/23 01:08:12;;;;;;;8.60;5.80;;;;;;;13.63;100.00;101018.38;5035223;28;20338;-70
2023/07/23 01:10:39;;;;;;;7.80;5.23;;;;;;;13.97;100.00;101090.78;5033266;28;20539;-71
2023/07/23 01:13:06;;;;;;;8.93;6.00;;;;;;;13.72;100.00;101104.16;5033165;28;20998;-70
2023/07/23 01:15:33;;;;;;;10.17;5.50;;;;;;;13.56;100.00;101069.56;5026393;28;20438;-71
2023/07/23 01:18:01;;;;;;;7.33;5.53;;;;;;;13.46;100.00;101088.06;5027804;28;20443;-70
2023/07/23 01:20:27;;;;;;;6.83;4.60;;;;;;;13.59;100.00;101103.38;5028055;28;20504;-71
2023/07/23 01:22:52;;;;;;;8.03;4.93;;;;;;;13.71;100.00;101123.22;5030541;28;20454;-71
2023/07/23 01:25:18;;;;;;;9.50;6.20;;;;;;;13.88;100.00;101155.94;5028096;28;20216;-71
2023/07/23 01:27:43;;;;;;;10.93;6.03;;;;;;;13.49;100.00;101106.50;5040385;28;20298;-71
2023/07/23 01:30:10;;;;;;;9.67;6.10;;;;;;;13.64;100.00;101136.72;5031497;28;20199;-71
2023/07/23 01:32:37;;;;;;;8.20;5.37;;;;;;;13.59;100.00;101122.22;5025322;28;20342;-71
2023/07/23 01:35:13;;;;;;;10.13;4.83;;;;;;;13.30;100.00;101083.94;5033522;28;20525;-71
2023/07/23 01:37:38;;;;;;;6.30;4.87;;;;;;;13.73;100.00;101167.81;5031829;28;20944;-71
2023/07/23 01:40:05;;;;;;;13.23;5.83;;;;;;;13.56;100.00;101140.47;5031421;28;20525;-71
2023/07/23 01:42:31;;;;;;;10.50;5.93;;;;;;;13.76;100.00;101164.69;5029600;28;20202;-72
2023/07/23 01:45:01;;;;;;;9.27;5.70;;;;;;;13.89;100.00;101195.38;5034821;28;20512;-71
2023/07/23 01:47:26;;;;;;;8.60;5.80;;;;;;;13.42;100.00;101114.59;5029159;28;20485;-72
2023/07/23 01:49:52;;;;;;;8.17;5.93;;;;;;;13.63;100.00;101153.94;5028845;28;20441;-70
2023/07/23 01:52:17;;;;;;;8.27;5.83;;;;;;;13.82;100.00;101175.66;5031372;28;20192;-72
2023/07/23 01:54:43;;;;;;;8.80;5.93;;;;;;;13.85;100.00;101210.28;5025582;28;20176;-71
2023/07/23 01:57:08;;;;;;;7.67;5.80;;;;;;;13.90;100.00;101218.59;5029567;28;20770;-71
2023/07/23 01:59:34;;;;;;;8.13;5.80;;;;;;;13.65;100.00;101202.25;5025356;28;20187;-72
2023/07/23 02:02:00;;;;;;;6.57;5.57;;;;;;;13.69;100.00;101215.09;5028137;28;20445;-72
2023/07/23 02:04:25;;;;;;;12.13;6.13;;;;;;;14.00;100.00;101262.97;5038090;28;20218;-72
2023/07/23 02:06:51;;;;;;;7.63;5.70;;;;;;;13.85;100.00;101234.56;5031790;28;20473;-71
2023/07/23 02:09:16;;;;;;;7.70;6.10;;;;;;;13.54;100.00;101183.00;5033431;28;20650;-72
2023/07/23 02:11:41;;;;;;;6.70;5.07;;;;;;;13.97;100.00;101263.38;5029652;28;20189;-72
2023/07/23 02:14:08;;;;;;;9.80;6.27;;;;;;;13.56;100.00;101182.78;5026050;28;20685;-71
2023/07/23 02:16:34;;;;;;;9.40;6.40;;;;;;;13.99;100.00;101255.06;5030294;28;20352;-72
2023/07/23 02:19:00;;;;;;;10.67;6.23;;;;;;;14.02;100.00;101262.72;5026022;28;21366;-72
2023/07/23 02:21:25;;;;;;;6.90;5.30;;;;;;;14.10;100.00;101254.41;5029736;28;20648;-71
2023/07/23 02:23:51;;;;;;;7.53;5.33;;;;;;;13.70;100.00;101197.06;5030790;28;20196;-70
2023/07/23 02:26:17;;;;;;;8.00;5.57;;;;;;;13.97;100.00;101227.47;5031480;28;20212;-71
2023/07/23 02:28:43;;;;;;;9.70;6.07;;;;;;;13.62;100.00;101195.41;5028680;28;20439;-71
2023/07/23 02:31:09;;;;;;;8.37;6.13;;;;;;;13.81;100.00;101228.75;5034814;28;20192;-71
2023/07/23 02:33:35;;;;;;;8.33;5.63;;;;;;;14.07;100.00;101262.94;5032611;28;20473;-71
2023/07/23 02:36:02;;;;;;;13.13;5.63;;;;;;;14.00;100.00;101257.56;5027282;28;20616;-71
2023/07/23 02:38:27;;;;;;;6.17;5.53;;;;;;;13.73;100.00;101224.41;5035311;28;20184;-72
2023/07/23 02:40:56;;;;;;;7.90;5.60;;;;;;;14.11;100.00;101272.25;5031629;28;20805;-71
2023/07/23 02:43:22;;;;;;;8.60;5.33;;;;;;;13.57;100.00;101195.22;5032015;28;20196;-71
2023/07/23 02:45:47;;;;;;;13.63;5.87;;;;;;;14.04;100.00;101268.75;5033865;28;20838;-71
2023/07/23 02:48:13;;;;;;;7.43;4.93;;;;;;;13.98;100.00;101267.72;5030608;28;20198;-71
2023/07/23 02:50:39;;;;;;;6.50;5.00;;;;;;;14.09;100.00;101265.41;5031028;28;20188;-71
2023/07/23 02:53:05;;;;;;;9.33;5.60;;;;;;;14.17;100.00;101286.75;5031810;28;20188;-71
2023/07/23 02:55:31;;;;;;;8.13;5.70;;;;;;;14.02;100.00;101270.81;5029494;28;21214;-71
2023/07/23 02:57:57;;;;;;;7.03;5.27;;;;;;;14.14;100.00;101281.78;5031556;28;21644;-71
2023/07/23 03:00:22;;;;;;;6.27;4.60;;;;;;;13.97;100.00;101262.53;5027105;28;20443;-71
2023/07/23 03:02:48;;;;;;;5.53;4.40;;;;;;;13.94;100.00;101271.91;5034878;28;20196;-71
2023/07/23 03:05:14;;;;;;;6.40;4.73;;;;;;;14.07;100.00;101286.38;5028303;28;20216;-71
2023/07/23 03:07:40;;;;;;;6.97;4.90;;;;;;;14.10;100.00;101367.72;5028583;28;20578;-71
2023/07/23 03:10:06;;;;;;;6.27;4.67;;;;;;;13.81;100.00;101335.78;5030837;28;20442;-72
2023/07/23 03:12:34;;;;;;;7.33;4.67;;;;;;;14.18;100.00;101389.09;5029005;28;20929;-70
2023/07/23 03:15:00;;;;;;;7.37;4.53;;;;;;;14.11;100.00;101390.94;5029195;28;20924;-70
2023/07/23 03:17:25;;;;;;;5.73;4.27;;;;;;;14.10;100.00;101373.09;5028489;28;20493;-70
2023/07/23 03:19:51;;;;;;;9.73;4.90;;;;;;;14.08;100.00;101375.19;5027409;28;20277;-70
2023/07/23 03:22:17;;;;;;;7.33;5.20;;;;;;;14.11;100.00;101363.97;5027881;28;20279;-70
2023/07/23 03:24:43;;;;;;;6.70;4.73;;;;;;;14.14;100.00;101349.22;5025855;28;20477;-72
2023/07/23 03:27:08;;;;;;;7.33;4.77;;;;;;;13.87;100.00;101322.28;5036420;28;20298;-72
2023/07/23 03:29:34;;;;;;;6.73;4.60;;;;;;;13.85;100.00;101310.06;5024487;28;20511;-69
2023/07/23 03:31:59;;;;;;;9.17;5.20;;;;;;;13.51;100.00;101264.25;5030452;28;20291;-70
2023/07/23 03:34:25;;;;;;;8.17;5.10;;;;;;;14.12;100.00;101352.16;5030077;28;20192;-72
2023/07/23 03:36:51;;;;;;;11.93;4.90;;;;;;;14.16;100.00;101353.38;5030584;28;20204;-70
2023/07/23 03:39:18;;;;;;;9.10;4.80;;;;;;;14.01;100.00;101318.53;5034690;28;20188;-69
2023/07/23 03:41:47;;;;;;;9.23;5.70;;;;;;;14.17;100.00;101338.84;5029334;28;20477;-70
2023/07/23 03:44:13;;;;;;;8.23;5.67;;;;;;;14.00;100.00;101311.50;5027057;28;20529;-70
2023/07/23 03:46:56;;;;;;;7.80;5.23;;;;;;;14.15;100.00;101338.25;5029172;28;20463;-71
2023/07/23 03:49:22;;;;;;;7.83;6.30;;;;;;;13.67;100.00;101246.81;5026894;28;20431;-71
2023/07/23 03:51:47;;;;;;;7.47;5.17;;;;;;;14.14;100.00;101327.66;5030809;28;20445;-71
2023/07/23 03:54:12;;;;;;;7.23;5.50;;;;;;;13.61;100.00;101241.44;5026572;28;20222;-72
2023/07/23 03:56:38;;;;;;;9.07;5.63;;;;;;;14.00;100.00;101305.25;5029113;28;20220;-69
2023/07/23 03:59:04;;;;;;;12.10;5.90;;;;;;;14.17;100.00;101313.75;5031120;28;20209;-72
2023/07/23 04:01:29;;;;;;;10.43;6.43;;;;;;;13.98;100.00;101305.47;5031125;28;20648;-72
2023/07/23 04:03:54;;;;;;;8.43;5.90;;;;;;;13.68;100.00;101253.88;5028011;28;20261;-69
2023/07/23 04:06:20;;;;;;;8.80;5.40;;;;;;;14.13;100.00;101302.53;5029504;28;20208;-71
2023/07/23 04:08:45;;;;;;;7.47;5.80;;;;;;;13.46;100.00;101206.63;5029370;28;20193;-71
2023/07/23 04:11:11;;;;;;;8.93;6.40;;;;;;;14.05;100.00;101285.75;5027679;28;20194;-71
2023/07/23 04:13:36;;;;;;;8.20;6.07;;;;;;;13.68;100.00;101226.09;5027969;28;20665;-70
2023/07/23 04:16:08;;;;;;;11.43;5.90;;;;;;;14.07;100.00;101307.97;5029358;28;20226;-71
2023/07/23 04:18:47;;;;;;;9.13;6.13;;;;;;;14.02;100.00;101290.53;5025393;28;20261;-71
2023/07/23 04:21:14;;;;;;;7.30;4.97;;;;;;;13.94;100.00;101268.34;5028987;28;20554;-71
2023/07/23 04:23:39;;;;;;;7.90;5.67;;;;;;;13.89;100.00;101258.22;5026144;28;20504;-71
2023/07/23 04:26:05;;;;;;;9.70;5.37;;;;;;;14.12;100.00;101273.09;5024888;28;20458;-71
2023/07/23 04:28:30;;;;;;;7.77;5.47;;;;;;;14.21;100.00;101304.19;5030763;28;20244;-71
2023/07/23 04:30:55;;;;;;;7.37;5.30;;;;;;;14.01;100.00;101264.59;5031076;28;20192;-70
2023/07/23 04:33:21;;;;;;;7.60;5.40;;;;;;;14.08;100.00;101280.75;5030987;28;20207;-71
2023/07/23 04:35:46;;;;;;;6.70;5.13;;;;;;;13.74;100.00;101220.69;5032258;28;20262;-71
2023/07/23 04:38:12;;;;;;;5.97;4.50;;;;;;;14.27;100.00;101289.84;5030126;28;20196;-71
2023/07/23 04:40:37;;;;;;;9.97;5.93;;;;;;;13.87;100.00;101248.66;5030613;28;20192;-70
2023/07/23 04:43:03;;;;;;;7.63;5.57;;;;;;;14.14;100.00;101293.41;5028817;28;20819;-71
2023/07/23 04:45:30;;;;;;;7.47;5.40;;;;;;;13.68;100.00;101199.97;5028582;28;20236;-71
2023/07/23 04:47:55;;;;;;;8.50;5.53;;;;;;;14.28;100.00;101283.41;5028555;28;20238;-71
2023/07/23 04:50:21;;;;;;;9.17;5.80;;;;;;;13.57;100.00;101184.44;5029240;28;20528;-71
2023/07/23 04:52:46;;;;;;;8.07;4.97;;;;;;;14.15;100.00;101265.41;5030004;28;20268;-71
2023/07/23 04:55:12;;;;;;;9.10;5.30;;;;;;;13.83;100.00;101225.84;5029445;28;20215;-71
2023/07/23 04:57:38;;;;;;;8.00;5.10;;;;;;;14.02;100.00;101252.75;5030799;28;20876;-71
2023/07/23 05:00:06;;;;;;;9.87;5.30;;;;;;;13.85;100.00;101243.47;5030243;28;20196;-71
2023/07/23 05:02:32;;;;;;;7.90;5.20;;;;;;;14.00;100.00;101246.78;5027513;28;20435;-70
2023/07/23 05:04:58;;;;;;;7.87;5.23;;;;;;;14.19;100.00;101252.31;5032334;28;21060;-71
2023/07/23 05:07:23;;;;;;;9.03;5.50;;;;;;;13.99;100.00;101230.78;5041200;28;20215;-71
2023/07/23 05:09:49;;;;;;;10.30;5.97;;;;;;;13.55;100.00;101163.09;5032532;28;20203;-71
2023/07/23 05:12:14;;;;;;;8.80;5.10;;;;;;;14.13;100.00;101243.19;5034572;28;20192;-71
2023/07/23 05:14:39;;;;;;;6.83;4.90;;;;;;;14.23;100.00;101237.34;5035437;28;20180;-71
2023/07/23 05:17:05;;;;;;;8.50;5.43;;;;;;;13.95;100.00;101200.72;5033364;28;20666;-71
2023/07/23 05:19:30;;;;;;;7.30;5.00;;;;;;;14.13;100.00;101223.50;5032864;28;20192;-71
2023/07/23 05:21:56;;;;;;;8.47;5.47;;;;;;;14.33;100.00;101248.53;5033511;28;20251;-71
2023/07/23 05:24:22;;;;;;;9.47;6.03;;;;;;;14.19;100.00;101233.44;5029460;28;20734;-71
2023/07/23 05:26:47;;;;;;;13.70;5.50;;;;;;;14.13;100.00;101204.63;5028682;28;20467;-71
2023/07/23 05:29:13;;;;;;;6.47;4.93;;;;;;;13.63;100.00;101115.41;5038385;28;20297;-71
2023/07/23 05:31:38;;;;;;;9.83;5.33;;;;;;;13.73;100.00;101148.94;5036441;28;20200;-71
2023/07/23 05:34:04;;;;;;;6.30;4.97;;;;;;;13.97;100.00;101181.63;5031240;28;20192;-71
2023/07/23 05:36:29;;;;;;;5.87;5.20;;;;;;;14.33;100.00;101239.63;5029812;28;20203;-71
2023/07/23 05:38:54;;;;;;;7.57;4.80;;;;;;;14.30;100.00;101245.44;5033268;28;20238;-71
2023/07/23 05:41:20;;;;;;;9.73;5.87;;;;;;;13.78;100.00;101168.00;5033780;28;20884;-71
2023/07/23 05:43:45;;;;;;;6.13;5.33;;;;;;;14.19;100.00;101215.38;5033325;28;20190;-71
2023/07/23 05:46:11;;;;;;;7.43;5.40;;;;;;;14.31;100.00;101220.09;5030479;28;20208;-71
2023/07/23 05:48:36;;;;;;;9.37;6.10;;;;;;;14.36;100.00;101229.22;5032386;28;20195;-71
2023/07/23 05:51:02;;;;;;;7.43;5.87;;;;;;;14.39;100.00;101234.19;5039092;28;20191;-71
2023/07/23 05:53:27;;;;;;;8.10;5.40;;;;;;;14.29;100.00;101206.84;5036522;28;20192;-71
2023/07/23 05:55:52;;;;;;;8.20;6.23;;;;;;;14.31;100.00;101233.59;5036505;28;20294;-70
2023/07/23 05:58:18;;;;;;;12.33;7.00;;;;;;;13.45;100.00;101073.78;5034193;28;20758;-71
2023/07/23 06:00:43;;;;;;;7.97;7.17;;;;;;;14.28;100.00;101228.63;5033530;28;20239;-71
2023/07/23 06:03:09;;;;;;;8.47;6.80;;;;;;;13.95;100.00;101186.41;5036005;28;20278;-71
2023/07/23 06:05:34;;;;;;;10.47;6.70;;;;;;;14.24;100.00;101199.38;5034777;28;20211;-71
2023/07/23 06:07:59;;;;;;;10.50;7.30;;;;;;;13.56;100.00;101139.66;5036204;28;20188;-71
2023/07/23 06:10:25;;;;;;;9.10;6.87;;;;;;;14.35;100.00;101229.41;5034650;28;20183;-71
2023/07/23 06:12:50;;;;;;;11.07;6.70;;;;;;;14.31;100.00;101218.22;5033984;28;20192;-71
2023/07/23 06:15:16;;;;;;;10.97;7.53;;;;;;;14.22;100.00;101211.41;5034513;28;20241;-71
2023/07/23 06:17:41;;;;;;;8.47;6.33;;;;;;;14.35;100.00;101203.28;5033027;28;20219;-70
2023/07/23 06:20:07;;;;;;;9.50;6.90;;;;;;;14.24;100.00;101198.56;5031611;28;20196;-70
2023/07/23 06:22:33;;;;;;;9.80;6.70;;;;;;;14.21;100.00;101205.19;5033268;28;20701;-71
2023/07/23 06:24:58;;;;;;;9.43;6.30;;;;;;;14.37;100.00;101235.44;5030830;28;20569;-70
2023/07/23 06:27:23;;;;;;;8.50;6.90;;;;;;;14.03;100.00;101159.22;5030475;28;20589;-70
2023/07/23 06:29:49;;;;;;;8.60;6.53;;;;;;;14.46;100.00;101242.22;5040515;28;20187;-71
2023/07/23 06:32:14;;;;;;;11.40;6.40;;;;;;;14.16;100.00;101198.78;5031239;28;20671;-70
2023/07/23 06:34:40;;;;;;;10.50;6.03;;;;;;;14.48;100.00;101205.91;5035320;28;20207;-70
2023/07/23 06:37:05;;;;;;;8.23;5.30;;;;;;;14.26;100.00;101172.16;5032033;28;20215;-70
2023/07/23 06:39:30;;;;;;;8.00;6.17;;;;;;;14.21;100.00;101163.91;5034981;28;20657;-70
2023/07/23 06:41:56;;;;;;;10.00;6.37;;;;;;;14.51;100.00;101212.75;5032709;28;20246;-70
2023/07/23 06:44:21;;;;;;;8.33;5.50;;;;;;;13.68;100.00;101065.19;5033843;28;20682;-71
2023/07/23 06:46:47;;;;;;;9.27;5.70;;;;;;;14.44;100.00;101179.56;5031974;28;20215;-70
2023/07/23 06:49:13;;;;;;;9.70;6.80;;;;;;;14.51;100.00;101199.25;5031936;28;20204;-71
2023/07/23 06:51:39;;;;;;;6.90;5.77;;;;;;;14.61;100.00;101215.84;5033700;28;20275;-69
2023/07/23 06:54:04;;;;;;;8.23;6.03;;;;;;;14.44;100.00;101156.09;5035565;28;20508;-71
2023/07/23 06:56:30;;;;;;;7.60;5.80;;;;;;;13.97;100.00;101084.53;5034969;28;20200;-69
2023/07/23 06:58:55;;;;;;;7.97;6.20;;;;;;;14.23;100.00;101121.34;5035559;28;20333;-71
2023/07/23 07:01:22;;;;;;;11.70;7.03;;;;;;;14.40;100.00;101127.06;5029524;28;20180;-70
2023/07/23 07:03:47;;;;;;;10.47;6.70;;;;;;;14.22;100.00;101109.72;5026041;28;20685;-70
2023/07/23 07:06:13;;;;;;;8.70;5.83;;;;;;;14.36;100.00;101110.47;5026510;28;20458;-71
2023/07/23 07:08:43;;;;;;;9.10;5.97;;;;;;;14.80;100.00;101184.34;5027734;28;20294;-71
2023/07/23 07:11:10;;;;;;;8.80;6.43;;;;;;;14.56;100.00;101145.47;5029824;28;20447;-70
2023/07/23 07:13:36;;;;;;;7.33;6.07;;;;;;;14.81;100.00;101177.06;5035268;28;21231;-70
2023/07/23 07:16:02;;;;;;;10.47;7.17;;;;;;;14.80;100.00;101162.75;5032210;28;21182;-71
2023/07/23 07:18:28;;;;;;;9.47;7.37;;;;;;;14.57;100.00;101157.09;5027032;28;20501;-68
2023/07/23 07:20:58;;;;;;;10.00;6.60;;;;;;;14.85;100.00;101167.50;5027937;28;20666;-70
2023/07/23 07:23:28;;;;;;;8.53;5.90;;;;;;;14.85;100.00;101156.69;5031544;28;20196;-70
2023/07/23 07:25:55;;;;;;;8.47;6.67;;;;;;;14.12;100.00;101041.94;5031034;28;20782;-69
2023/07/23 07:28:21;;;;;;;11.30;7.17;;;;;;;14.83;100.00;101145.28;5025717;28;20441;-70
2023/07/23 07:30:46;;;;;;;9.33;7.03;;;;;;;14.82;100.00;101157.13;5033494;28;20445;-69
2023/07/23 07:33:12;;;;;;;9.73;6.97;;;;;;;14.91;100.00;101148.53;5036183;28;20200;-71
2023/07/23 07:35:37;;;;;;;11.00;6.87;;;;;;;14.83;100.00;101132.59;5032511;28;20195;-70
2023/07/23 07:38:06;;;;;;;8.80;6.50;;;;;;;14.14;100.00;101020.13;5036734;28;20293;-70
2023/07/23 07:40:32;;;;;;;9.33;7.90;;;;;;;14.98;100.00;101134.97;5030896;28;20192;-71
2023/07/23 07:42:57;;;;;;;10.60;7.67;;;;;;;14.76;100.00;101106.72;5029686;28;20515;-71
2023/07/23 07:45:23;;;;;;;11.40;7.80;;;;;;;14.31;100.00;101056.31;5031025;28;20976;-69
2023/07/23 07:47:49;;;;;;;13.93;7.73;;;;;;;14.69;100.00;101118.41;5029554;28;20702;-71
2023/07/23 07:50:15;;;;;;;11.00;8.40;;;;;;;14.92;100.00;101130.44;5028244;28;20495;-70
2023/07/23 07:52:43;;;;;;;10.07;7.53;;;;;;;14.86;100.00;101112.44;5030427;28;20207;-69
2023/07/23 07:55:09;;;;;;;11.73;8.77;;;;;;;14.89;100.00;101129.00;5033126;28;20435;-69
2023/07/23 07:57:35;;;;;;;9.13;7.23;;;;;;;14.68;100.00;101080.81;5032780;28;20835;-70
2023/07/23 08:00:06;;;;;;;13.03;8.90;;;;;;;14.61;100.00;101051.16;5029574;28;20851;-70
2023/07/23 08:02:32;;;;;;;10.70;8.70;;;;;;;14.46;100.00;101042.53;5026639;28;20271;-71
2023/07/23 08:04:57;;;;;;;12.80;8.87;;;;;;;14.72;100.00;101083.88;5027881;28;20482;-70
2023/07/23 08:07:23;;;;;;;11.50;8.70;;;;;;;14.76;100.00;101091.34;5027090;28;20212;-71
2023/07/23 08:09:52;;;;;;;10.70;8.00;;;;;;;14.78;100.00;101070.34;5021012;28;20193;-70
2023/07/23 08:12:18;;;;;;;11.43;7.67;;;;;;;14.85;100.00;101086.47;5026076;28;20219;-69
2023/07/23 08:14:44;;;;;;;10.03;7.60;;;;;;;15.09;100.00;101101.84;5023959;28;20443;-69
2023/07/23 08:17:10;;;;;;;14.20;8.47;;;;;;;14.95;100.00;101086.78;5026673;28;20964;-70
2023/07/23 08:19:36;;;;;;;10.83;8.10;;;;;;;14.75;100.00;101045.63;5015676;28;20439;-70
2023/07/23 08:22:02;;;;;;;12.20;8.57;;;;;;;14.97;100.00;101073.91;5033769;28;20661;-69
2023/07/23 08:24:27;;;;;;;12.47;8.73;;;;;;;15.12;100.00;101106.78;5022376;28;20697;-70
2023/07/23 08:26:57;;;;;;;11.57;7.87;;;;;;;15.10;100.00;101087.28;5024664;28;20254;-70
2023/07/23 08:29:25;;;;;;;11.13;8.70;;;;;;;15.12;100.00;101109.50;5025133;28;20254;-70
2023/07/23 08:31:52;;;;;;;13.10;9.30;;;;;;;15.21;100.00;101103.81;5031582;28;20450;-70
2023/07/23 08:34:19;;;;;;;11.50;7.50;;;;;;;14.86;100.00;101042.22;5034614;28;20557;-70
2023/07/23 08:36:45;;;;;;;12.70;9.30;;;;;;;14.46;100.00;100966.94;5023252;28;20463;-70
2023/07/23 08:39:12;;;;;;;12.33;7.70;;;;;;;14.98;100.00;101042.31;5029742;28;20834;-70
2023/07/23 08:42:00;;;;;;;14.17;9.27;;;;;;;15.23;100.00;101105.25;5030361;28;20284;-70
2023/07/23 08:45:13;;;;;;;14.47;9.87;;;;;;;15.20;100.00;101094.06;5044456;28;20481;-70
2023/07/23 08:47:39;;;;;;;13.50;8.50;;;;;;;15.08;100.00;101077.75;5027890;28;20542;-70
2023/07/23 08:50:06;;;;;;;12.13;9.67;;;;;;;15.22;100.00;101098.19;5027514;28;20451;-71
2023/07/23 08:52:31;;;;;;;10.90;8.40;;;;;;;15.05;100.00;101070.09;5029472;28;20456;-70
2023/07/23 08:54:57;;;;;;;13.83;9.57;;;;;;;14.64;100.00;101014.81;5026159;28;20478;-70
2023/07/23 08:57:23;;;;;;;12.43;9.00;;;;;;;15.12;100.00;101087.88;5026437;28;20468;-70
2023/07/23 08:59:50;;;;;;;18.73;11.40;;;;;;;15.13;100.00;101088.72;5024469;28;20183;-70
2023/07/23 09:02:16;;;;;;;14.67;10.00;;;;;;;15.22;100.00;101119.00;5028443;28;20202;-70
2023/07/23 09:04:41;;;;;;;14.33;8.83;;;;;;;15.16;100.00;101088.28;5025902;28;20859;-70
2023/07/23 09:07:10;;;;;;;14.90;10.63;;;;;;;15.21;100.00;101099.22;5028083;28;21300;-70
2023/07/23 09:09:35;;;;;;;13.37;8.83;;;;;;;15.28;100.00;101120.78;5022001;28;20188;-70
2023/07/23 09:12:03;;;;;;;13.90;9.43;;;;;;;15.14;100.00;101102.00;5034417;28;22480;-70
2023/07/23 09:14:29;;;;;;;13.70;10.50;;;;;;;14.80;100.00;101049.31;5028069;28;20231;-70
2023/07/23 09:16:54;;;;;;;10.87;7.70;;;;;;;15.01;100.00;101075.09;5033652;28;20879;-69
2023/07/23 09:19:26;;;;;;;12.20;8.43;;;;;;;15.21;100.00;101112.72;5034985;28;20246;-71
2023/07/23 09:21:56;;;;;;;13.23;9.57;;;;;;;15.23;100.00;101107.94;5028886;28;20214;-71
2023/07/23 09:24:22;;;;;;;9.50;7.03;;;;;;;15.14;100.00;101104.69;5026811;28;21318;-71
2023/07/23 09:26:48;;;;;;;11.83;8.37;;;;;;;14.97;100.00;101068.50;5028426;28;20463;-71
2023/07/23 09:29:13;;;;;;;9.13;6.70;;;;;;;15.05;100.00;101070.91;5023695;28;20273;-71
2023/07/23 09:31:45;;;;;;;8.97;7.60;;;;;;;14.73;100.00;101031.56;5029179;28;20187;-71
2023/07/23 09:34:11;;;;;;;16.70;10.47;;;;;;;15.25;100.00;101105.84;5025045;28;20291;-70
2023/07/23 09:36:38;;;;;;;10.33;7.33;;;;;;;15.08;100.00;101085.88;5015887;28;20569;-71
2023/07/23 09:39:05;;;;;;;8.63;7.50;;;;;;;15.25;100.00;101115.84;5022951;28;20499;-70
2023/07/23 09:41:36;;;;;;;9.40;7.00;;;;;;;14.93;100.00;101067.31;5027686;28;20249;-71
2023/07/23 09:44:05;;;;;;;8.80;6.07;;;;;;;15.30;100.00;101110.56;5027147;28;20536;-71
2023/07/23 09:46:31;;;;;;;8.83;7.27;;;;;;;14.65;100.00;101008.34;5030096;28;20512;-71
2023/07/23 09:48:57;;;;;;;10.97;9.10;;;;;;;15.32;100.00;101119.28;5030096;28;21058;-70
2023/07/23 09:51:22;;;;;;;12.90;6.60;;;;;;;15.40;100.00;101110.06;5026895;28;20438;-69
2023/07/23 09:53:48;;;;;;;13.10;9.07;;;;;;;15.35;100.00;101102.63;5032102;28;20192;-70
2023/07/23 09:56:18;;;;;;;9.30;6.53;;;;;;;15.23;100.00;101099.84;5032656;28;20822;-70
2023/07/23 09:58:48;;;;;;;12.00;6.50;;;;;;;15.30;100.00;101102.47;5029108;28;20207;-71
2023/07/23 10:01:16;;;;;;;8.67;6.63;;;;;;;15.09;100.00;101063.19;5031940;28;20426;-70
2023/07/23 10:03:43;;;;;;;10.87;7.70;;;;;;;15.32;100.00;101108.47;5027664;28;20441;-70
2023/07/23 10:06:11;;;;;;;8.43;6.60;;;;;;;15.34;100.00;101107.22;5031670;28;20477;-70
2023/07/23 10:08:42;;;;;;;6.93;5.87;;;;;;;15.01;100.00;101061.59;5032770;28;20414;-70
2023/07/23 10:11:11;;;;;;;8.80;7.33;;;;;;;15.12;100.00;101092.47;5034618;28;20431;-70
2023/07/23 10:13:38;;;;;;;10.13;6.30;;;;;;;15.14;100.00;101095.78;5038937;28;20810;-70
2023/07/23 10:16:08;;;;;;;11.20;7.40;;;;;;;15.26;100.00;101126.41;5033669;28;20476;-71
2023/07/23 10:18:36;;;;;;;7.90;6.43;;;;;;;15.20;100.00;101137.28;5032122;28;20484;-70
2023/07/23 10:21:05;;;;;;;9.67;7.07;;;;;;;14.92;100.00;101084.53;5030180;28;20446;-70
2023/07/23 10:23:31;;;;;;;7.87;5.90;;;;;;;15.27;100.00;101128.06;5038716;28;20455;-70
2023/07/23 10:26:22;;;;;;;9.90;7.30;;;;;;;15.31;100.00;101131.16;5033252;28;20525;-70
2023/07/23 10:28:50;;;;;;;7.40;6.03;;;;;;;14.96;100.00;101064.16;5033093;28;20215;-70
2023/07/23 10:31:25;;;;;;;9.83;6.53;;;;;;;15.24;100.00;101111.47;5031678;28;20969;-70
2023/07/23 10:33:51;;;;;;;7.40;6.23;;;;;;;15.37;100.00;101131.09;5030589;28;20434;-70
2023/07/23 10:36:17;;;;;;;9.50;6.33;;;;;;;15.37;100.00;101132.97;5032913;28;20490;-69
2023/07/23 10:38:43;;;;;;;6.67;5.60;;;;;;;15.25;100.00;101102.34;5034788;28;20185;-70
2023/07/23 10:41:09;;;;;;;9.20;7.20;;;;;;;15.00;100.00;101073.47;5040125;28;21069;-71
2023/07/23 10:43:45;;;;;;;9.40;5.97;;;;;;;15.16;100.00;101099.09;5034282;28;20443;-70
2023/07/23 10:46:17;;;;;;;8.43;6.30;;;;;;;15.23;100.00;101128.75;5035188;28;20249;-71
2023/07/23 10:48:55;;;;;;;6.77;5.67;;;;;;;15.42;100.00;101125.03;5037565;28;20982;-70
2023/07/23 10:51:22;;;;;;;8.03;5.50;;;;;;;15.43;100.00;101123.13;5039703;28;21084;-70
2023/07/23 10:54:02;;;;;;;9.50;6.00;;;;;;;15.38;100.00;101113.81;5035893;28;20438;-70
2023/07/23 10:56:34;;;;;;;6.97;5.23;;;;;;;15.34;100.00;101114.50;5043101;28;20468;-70
2023/07/23 10:59:04;;;;;;;8.50;6.63;;;;;;;15.39;100.00;101117.38;5035373;28;20422;-71
2023/07/23 11:01:35;;;;;;;9.13;6.23;;;;;;;15.34;100.00;101111.78;5037802;28;20430;-71
2023/07/23 11:04:09;;;;;;;6.83;5.60;;;;;;;15.31;100.00;101123.06;5037850;28;20410;-71
2023/07/23 11:06:35;;;;;;;10.20;7.57;;;;;;;15.15;100.00;101106.34;5036152;28;20966;-70
2023/07/23 11:09:05;;;;;;;8.63;6.87;;;;;;;14.46;100.00;100977.75;5035733;28;20429;-70
2023/07/23 11:11:41;;;;;;;11.27;8.67;;;;;;;14.97;100.00;101083.88;5036296;28;20570;-70